Terminal Aerodrome Forecast
Issued by NWS

Current Version | Previous Version | Text Only | Print | Product List | Glossary Off
Versions: 1 2 3 4 5 6 7 8 9 10 11 12 13 14 15 16 17 18 19 20 21 22 23 24 25 26 27 28 29 30 31 32 33 34

000
FTUS41 KRLX 280846 AAC
TAFCKB
TAF AMD
KCKB 280846Z 2809/2906 00000KT 6SM BR BKN030
     FM281400 00000KT P6SM BKN150
     FM281800 25004KT 5SM BR VCTS BKN035CB
     FM282000 25004KT 6SM TSRA BR BKN035CB
     FM290000 00000KT P6SM +TSRA OVC020CB=

USA.gov is the U.S. government's official web portal to all federal, state and local government web resources and services.